createdAt,value
2022-11-05T00:01:34.043Z,52.27
2022-11-05T00:04:19.514Z,52.43
2022-11-05T00:07:04.670Z,49.37
2022-11-05T00:09:31.246Z,47.60
2022-11-05T00:12:16.647Z,45.30
2022-11-05T00:15:02.003Z,52.07
2022-11-05T00:17:28.523Z,47.50
2022-11-05T00:19:55.046Z,42.07
2022-11-05T00:22:40.367Z,42.97
2022-11-05T00:25:19.108Z,47.87
2022-11-05T00:27:45.701Z,42.43
2022-11-05T00:30:12.263Z,53.13
2022-11-05T00:32:38.767Z,54.17
2022-11-05T00:35:05.261Z,40.70
2022-11-05T00:37:31.839Z,53.07
2022-11-05T00:39:58.368Z,41.17
2022-11-05T00:42:43.732Z,51.67
2022-11-05T00:45:10.227Z,49.27
2022-11-05T00:47:55.667Z,40.23
2022-11-05T00:50:22.235Z,58.83
2022-11-05T00:52:58.711Z,53.87
2022-11-05T00:55:25.401Z,65.30
2022-11-05T00:57:51.901Z,50.83
2022-11-05T01:00:18.504Z,53.90
2022-11-05T01:02:45.243Z,48.57
2022-11-05T01:05:11.896Z,62.37
2022-11-05T01:07:38.399Z,56.73
2022-11-05T01:10:04.868Z,50.10
2022-11-05T01:12:31.667Z,58.30
2022-11-05T01:14:58.244Z,47.00
2022-11-05T01:17:24.809Z,45.67
2022-11-05T01:19:51.298Z,42.30
2022-11-05T01:22:17.834Z,44.03
2022-11-05T01:24:44.363Z,39.70
2022-11-05T01:27:10.872Z,37.77
2022-11-05T01:29:37.455Z,36.43
2022-11-05T01:32:04.046Z,33.93
2022-11-05T01:34:30.548Z,29.77
2022-11-05T01:36:57.127Z,42.87
2022-11-05T01:39:23.657Z,36.80
2022-11-05T01:41:50.139Z,29.13
2022-11-05T01:44:16.622Z,42.20
2022-11-05T01:46:43.129Z,33.47
2022-11-05T01:49:09.881Z,25.63
2022-11-05T01:51:36.386Z,33.43
2022-11-05T01:54:02.887Z,33.67
2022-11-05T01:56:29.380Z,37.43
2022-11-05T01:58:55.901Z,30.97
2022-11-05T02:01:22.513Z,36.80
2022-11-05T02:03:49.095Z,32.03
2022-11-05T02:06:15.589Z,36.60
2022-11-05T02:08:42.568Z,31.50
2022-11-05T02:11:09.030Z,21.80
2022-11-05T02:13:35.514Z,20.13
2022-11-05T02:16:03.260Z,27.33
2022-11-05T02:18:29.796Z,25.93
2022-11-05T02:20:56.363Z,34.00
2022-11-05T02:23:22.858Z,21.63
2022-11-05T02:25:49.348Z,25.50
2022-11-05T02:28:15.912Z,21.50
2022-11-05T02:30:42.549Z,32.83
2022-11-05T02:33:09.226Z,22.93
2022-11-05T02:35:35.922Z,35.83
2022-11-05T02:38:02.420Z,33.63
2022-11-05T02:40:28.978Z,30.23
2022-11-05T02:42:55.466Z,25.87
2022-11-05T02:45:22.062Z,31.20
2022-11-05T02:47:48.546Z,25.10
2022-11-05T02:50:15.032Z,25.83
2022-11-05T02:52:41.589Z,18.67
2022-11-05T02:55:08.093Z,38.63
2022-11-05T02:57:34.612Z,19.40
2022-11-05T03:00:01.087Z,28.80
2022-11-05T03:02:27.703Z,20.80
2022-11-05T03:04:54.313Z,24.97
2022-11-05T03:07:21.342Z,25.90
2022-11-05T03:09:47.823Z,19.13
2022-11-05T03:12:14.330Z,21.67
2022-11-05T03:14:40.817Z,21.10
2022-11-05T03:17:07.384Z,17.37
2022-11-05T03:19:33.857Z,18.77
2022-11-05T03:22:00.362Z,24.13
2022-11-05T03:24:26.865Z,18.27
2022-11-05T03:26:53.532Z,24.93
2022-11-05T03:29:20.094Z,26.70
2022-11-05T03:31:46.579Z,42.17
2022-11-05T03:34:13.056Z,22.97
2022-11-05T03:36:41.126Z,25.83
2022-11-05T03:39:07.635Z,30.93
2022-11-05T03:41:34.181Z,25.70
2022-11-05T03:44:00.693Z,34.20
2022-11-05T03:46:27.209Z,30.63
2022-11-05T03:48:55.126Z,32.17
2022-11-05T03:51:21.636Z,40.20
2022-11-05T03:53:48.155Z,30.40
2022-11-05T03:56:14.686Z,32.83
2022-11-05T03:58:41.199Z,32.30
2022-11-05T04:01:07.704Z,35.57
2022-11-05T04:03:36.452Z,33.10
2022-11-05T04:06:21.944Z,31.70
2022-11-05T04:09:07.086Z,32.77
2022-11-05T04:11:52.423Z,36.93
2022-11-05T04:14:18.932Z,34.33
2022-11-05T04:17:04.316Z,38.03
2022-11-05T04:19:49.460Z,32.57
2022-11-05T04:22:35.047Z,42.50
2022-11-05T04:25:01.560Z,45.90
2022-11-05T04:27:28.097Z,30.70
2022-11-05T04:30:13.437Z,47.37
2022-11-05T04:32:39.938Z,41.17
2022-11-05T04:35:06.427Z,32.97
2022-11-05T04:37:32.971Z,37.73
2022-11-05T04:39:59.680Z,34.53
2022-11-05T04:42:26.271Z,33.47
2022-11-05T04:44:52.843Z,31.73
2022-11-05T04:47:19.347Z,29.60
2022-11-05T04:49:45.863Z,28.80
2022-11-05T04:52:12.379Z,40.57
2022-11-05T04:54:38.890Z,38.17
2022-11-05T04:57:05.453Z,33.57
2022-11-05T04:59:31.958Z,37.73
2022-11-05T05:01:58.539Z,43.20
2022-11-05T05:04:25.139Z,41.20
2022-11-05T05:06:51.622Z,30.83
2022-11-05T05:09:18.127Z,30.13
2022-11-05T05:11:44.632Z,42.50
2022-11-05T05:14:11.151Z,39.40
2022-11-05T05:16:37.645Z,32.70
2022-11-05T05:19:04.135Z,37.83
2022-11-05T05:21:40.280Z,36.50
2022-11-05T05:24:08.628Z,37.60
2022-11-05T05:26:35.520Z,37.20
2022-11-05T05:29:02.046Z,40.37
2022-11-05T05:31:28.536Z,50.87
2022-11-05T05:33:55.066Z,40.20
2022-11-05T05:36:21.631Z,45.33
2022-11-05T05:38:48.181Z,55.33
2022-11-05T05:41:14.693Z,46.60
2022-11-05T05:43:41.194Z,58.90
2022-11-05T05:46:07.690Z,50.83
2022-11-05T05:48:34.170Z,58.87
2022-11-05T05:51:01.325Z,45.33
2022-11-05T05:53:27.797Z,61.50
2022-11-05T05:55:54.367Z,57.83
2022-11-05T05:58:20.895Z,49.70
2022-11-05T06:00:47.388Z,49.07
2022-11-05T06:03:14.412Z,65.23
2022-11-05T06:05:41.203Z,44.67
2022-11-05T06:08:07.673Z,54.80
2022-11-05T06:10:34.200Z,67.43
2022-11-05T06:13:00.763Z,52.07
2022-11-05T06:15:31.745Z,60.87
2022-11-05T06:18:01.180Z,58.17
2022-11-05T06:20:27.723Z,60.37
2022-11-05T06:22:54.239Z,54.93
2022-11-05T06:25:20.768Z,45.90
2022-11-05T06:27:47.294Z,50.50
2022-11-05T06:30:13.834Z,47.83
2022-11-05T06:32:40.344Z,53.60
2022-11-05T06:35:06.924Z,45.60
2022-11-05T06:37:33.829Z,43.83
2022-11-05T06:40:00.403Z,46.30
2022-11-05T06:42:26.978Z,52.87
2022-11-05T06:44:53.475Z,48.77
2022-11-05T06:47:20.023Z,49.10
2022-11-05T06:49:46.546Z,45.73
2022-11-05T06:52:13.097Z,43.50
2022-11-05T06:54:39.632Z,45.90
2022-11-05T06:57:06.237Z,50.10
2022-11-05T06:59:32.769Z,45.73
2022-11-05T07:01:59.314Z,56.17
2022-11-05T07:04:25.860Z,46.97
2022-11-05T07:06:52.352Z,89.03
2022-11-05T07:09:18.834Z,49.83
2022-11-05T07:11:45.382Z,49.90
2022-11-05T07:14:11.888Z,47.63
2022-11-05T07:16:38.607Z,57.73
2022-11-05T07:19:05.105Z,48.83
2022-11-05T07:21:31.587Z,54.20
2022-11-05T07:23:58.054Z,72.80
2022-11-05T07:26:24.620Z,58.20
2022-11-05T07:28:51.145Z,53.30
2022-11-05T07:31:17.652Z,58.93
2022-11-05T07:33:44.220Z,66.60
2022-11-05T07:36:10.757Z,70.07
2022-11-05T07:38:37.317Z,57.23
2022-11-05T07:41:03.858Z,67.97
2022-11-05T07:43:30.418Z,67.70
2022-11-05T07:45:56.992Z,55.07
2022-11-05T07:48:23.479Z,58.23
2022-11-05T07:50:49.959Z,58.37
2022-11-05T07:53:16.463Z,50.40
2022-11-05T07:55:43.388Z,47.00
2022-11-05T07:58:09.889Z,63.03
2022-11-05T08:00:36.447Z,56.13
2022-11-05T08:03:07.692Z,46.60
2022-11-05T08:05:36.627Z,54.87
2022-11-05T08:08:03.162Z,46.07
2022-11-05T08:10:29.987Z,44.60
2022-11-05T08:12:56.571Z,49.00
2022-11-05T08:15:23.067Z,41.50
2022-11-05T08:17:49.673Z,39.20
2022-11-05T08:20:16.226Z,43.40
2022-11-05T08:22:43.423Z,39.50
2022-11-05T08:25:10.004Z,37.23
2022-11-05T08:27:36.596Z,48.23
2022-11-05T08:30:03.148Z,28.43
2022-11-05T08:32:29.638Z,30.50
2022-11-05T08:34:56.155Z,38.83
2022-11-05T08:37:22.644Z,32.13
2022-11-05T08:39:49.107Z,36.27
2022-11-05T08:42:15.751Z,36.63
2022-11-05T08:44:42.280Z,28.47
2022-11-05T08:47:08.894Z,34.30
2022-11-05T08:49:35.413Z,43.83
2022-11-05T08:52:01.976Z,37.63
2022-11-05T08:54:28.542Z,49.77
2022-11-05T08:56:55.056Z,32.50
2022-11-05T08:59:21.585Z,39.60
2022-11-05T09:01:50.391Z,37.63
2022-11-05T09:04:17.044Z,39.67
2022-11-05T09:06:43.610Z,41.13
2022-11-05T09:09:10.076Z,38.27
2022-11-05T09:11:57.405Z,33.00
2022-11-05T09:14:23.182Z,38.33
2022-11-05T09:16:49.826Z,31.67
2022-11-05T09:19:16.362Z,28.00
2022-11-05T09:21:42.866Z,44.47
2022-11-05T09:24:09.433Z,32.87
2022-11-05T09:26:35.979Z,19.60
2022-11-05T09:29:02.497Z,22.97
2022-11-05T09:31:28.993Z,20.60
2022-11-05T09:33:55.533Z,19.33
2022-11-05T09:36:22.082Z,20.70
2022-11-05T09:38:48.566Z,25.07
2022-11-05T09:41:15.282Z,25.53
2022-11-05T09:43:41.817Z,19.27
2022-11-05T09:46:08.598Z,19.90
2022-11-05T09:48:35.121Z,12.17
2022-11-05T09:51:01.894Z,20.20
2022-11-05T09:53:28.513Z,16.80
2022-11-05T09:55:54.995Z,14.03
2022-11-05T09:58:27.478Z,11.43
2022-11-05T10:00:55.206Z,14.47
2022-11-05T10:03:21.729Z,13.80
2022-11-05T10:05:48.313Z,14.77
2022-11-05T10:08:16.910Z,16.53
2022-11-05T10:10:43.438Z,12.67
2022-11-05T10:13:10.168Z,11.77
2022-11-05T10:15:47.267Z,18.97
2022-11-05T10:18:14.734Z,16.53
2022-11-05T10:20:41.380Z,20.30
2022-11-05T10:23:07.987Z,24.97
2022-11-05T10:25:34.601Z,11.33
2022-11-05T10:28:01.122Z,17.60
2022-11-05T10:30:27.767Z,19.70
2022-11-05T10:32:54.268Z,17.07
2022-11-05T10:35:22.491Z,17.67
2022-11-05T10:37:49.003Z,13.30
2022-11-05T10:40:15.547Z,13.30
2022-11-05T10:42:42.071Z,12.20
2022-11-05T10:45:08.625Z,12.97
2022-11-05T10:47:35.148Z,10.27
2022-11-05T10:50:01.665Z,8.27
2022-11-05T10:52:29.134Z,12.40
2022-11-05T10:54:55.656Z,12.67
2022-11-05T10:57:22.127Z,14.57
2022-11-05T10:59:48.616Z,11.23
2022-11-05T11:02:15.187Z,12.57
2022-11-05T11:04:41.759Z,16.13
2022-11-05T11:07:08.288Z,15.10
2022-11-05T11:09:34.905Z,11.63
2022-11-05T11:12:01.635Z,19.53
2022-11-05T11:14:28.166Z,12.23
2022-11-05T11:16:57.461Z,16.40
2022-11-05T11:19:24.025Z,11.80
2022-11-05T11:21:50.525Z,12.50
2022-11-05T11:24:16.989Z,12.97
2022-11-05T11:26:43.523Z,10.90
2022-11-05T11:29:10.019Z,9.33
2022-11-05T11:31:36.548Z,13.67
2022-11-05T11:34:03.112Z,11.10
2022-11-05T11:36:29.600Z,15.17
2022-11-05T11:38:56.072Z,12.47
2022-11-05T11:41:22.953Z,9.87
2022-11-05T11:43:49.478Z,10.63
2022-11-05T11:46:16.021Z,14.23
2022-11-05T11:48:43.197Z,10.07
2022-11-05T11:51:09.781Z,14.73
2022-11-05T11:53:36.318Z,21.13
2022-11-05T11:56:02.844Z,8.33
2022-11-05T11:58:29.334Z,9.40
2022-11-05T12:00:55.833Z,13.30
2022-11-05T12:03:22.395Z,16.40
2022-11-05T12:05:49.058Z,12.17
2022-11-05T12:08:15.577Z,8.17
2022-11-05T12:10:42.079Z,10.80
2022-11-05T12:13:08.774Z,7.33
2022-11-05T12:15:35.475Z,9.53
2022-11-05T12:18:02.285Z,16.53
2022-11-05T12:20:29.957Z,12.43
2022-11-05T12:22:56.430Z,9.30
2022-11-05T12:25:22.939Z,6.47
2022-11-05T12:27:49.410Z,6.23
2022-11-05T12:30:16.004Z,9.63
2022-11-05T12:32:42.597Z,6.70
2022-11-05T12:35:09.283Z,4.50
2022-11-05T12:37:36.138Z,8.80
2022-11-05T12:40:02.800Z,7.37
2022-11-05T12:42:29.310Z,7.10
2022-11-05T12:44:55.931Z,4.90
2022-11-05T12:47:22.404Z,7.37
2022-11-05T12:49:48.950Z,12.10
2022-11-05T12:52:15.469Z,24.57
2022-11-05T12:54:41.972Z,6.37
2022-11-05T12:57:08.511Z,7.03
2022-11-05T12:59:35.033Z,5.83
2022-11-05T13:02:01.697Z,8.30
2022-11-05T13:04:28.254Z,7.17
2022-11-05T13:06:54.806Z,5.60
2022-11-05T13:09:21.357Z,5.97
2022-11-05T13:11:47.881Z,6.27
2022-11-05T13:14:14.382Z,4.27
2022-11-05T13:16:40.897Z,3.50
2022-11-05T13:19:07.376Z,7.53
2022-11-05T13:21:33.890Z,6.93
2022-11-05T13:24:00.434Z,6.23
2022-11-05T13:26:26.926Z,6.00
2022-11-05T13:28:53.433Z,7.23
2022-11-05T13:31:19.901Z,13.60
2022-11-05T13:33:46.419Z,14.13
2022-11-05T13:36:31.684Z,9.37
2022-11-05T13:39:02.478Z,6.40
2022-11-05T13:41:29.008Z,3.80
2022-11-05T13:43:55.536Z,6.50
2022-11-05T13:46:22.522Z,4.20
2022-11-05T13:48:49.010Z,14.10
2022-11-05T13:51:15.512Z,6.47
2022-11-05T13:53:42.629Z,5.90
2022-11-05T13:56:09.612Z,10.07
2022-11-05T13:58:36.107Z,7.07
2022-11-05T14:01:02.693Z,4.80
2022-11-05T14:03:29.242Z,6.40
2022-11-05T14:05:55.763Z,9.00
2022-11-05T14:08:22.280Z,5.13
2022-11-05T14:10:48.813Z,5.73
2022-11-05T14:13:15.300Z,3.37
2022-11-05T14:15:41.803Z,7.47
2022-11-05T14:18:08.279Z,3.50
2022-11-05T14:20:35.164Z,8.83
2022-11-05T14:23:04.984Z,6.10
2022-11-05T14:25:35.327Z,8.00
2022-11-05T14:28:01.807Z,4.57
2022-11-05T14:30:28.281Z,9.30
2022-11-05T14:32:55.497Z,7.07
2022-11-05T14:35:21.989Z,5.00
2022-11-05T14:37:48.477Z,7.00
2022-11-05T14:40:14.988Z,5.13
2022-11-05T14:42:41.459Z,4.17
2022-11-05T14:45:07.987Z,8.17
2022-11-05T14:47:34.492Z,3.33
2022-11-05T14:50:01.030Z,5.53
2022-11-05T14:52:27.548Z,5.50
2022-11-05T14:54:54.077Z,5.63
2022-11-05T14:57:20.617Z,10.87
2022-11-05T14:59:47.180Z,8.00
2022-11-05T15:02:13.802Z,4.80
2022-11-05T15:04:42.575Z,5.40
2022-11-05T15:07:09.073Z,10.03
2022-11-05T15:09:35.658Z,7.60
2022-11-05T15:12:02.402Z,12.43
2022-11-05T15:14:28.927Z,8.20
2022-11-05T15:16:55.412Z,16.33
2022-11-05T15:19:21.898Z,5.20
2022-11-05T15:21:48.417Z,11.97
2022-11-05T15:24:14.915Z,18.97
2022-11-05T15:26:41.710Z,8.33
2022-11-05T15:29:08.220Z,7.90
2022-11-05T15:31:34.703Z,9.47
2022-11-05T15:34:01.266Z,7.97
2022-11-05T15:36:27.866Z,6.63
2022-11-05T15:39:22.848Z,5.40
2022-11-05T15:41:40.951Z,8.40
2022-11-05T15:44:07.512Z,8.93
2022-11-05T15:46:33.987Z,4.40
2022-11-05T15:49:00.491Z,7.43
2022-11-05T15:51:26.984Z,6.30
2022-11-05T15:54:23.772Z,2.23
2022-11-05T15:56:39.974Z,2.43
2022-11-05T15:59:06.490Z,6.90
2022-11-05T16:01:33.164Z,9.90
2022-11-05T16:03:59.793Z,4.30
2022-11-05T16:06:26.283Z,5.13
2022-11-05T16:08:52.823Z,11.57
2022-11-05T16:11:19.297Z,8.07
2022-11-05T16:13:45.773Z,3.50
2022-11-05T16:16:12.254Z,2.30
2022-11-05T16:18:38.832Z,9.80
2022-11-05T16:21:05.362Z,4.07
2022-11-05T16:23:31.879Z,5.87
2022-11-05T16:25:58.481Z,5.73
2022-11-05T16:28:25.130Z,7.03
2022-11-05T16:30:51.614Z,17.87
2022-11-05T16:33:18.242Z,6.67
2022-11-05T16:35:44.724Z,4.20
2022-11-05T16:38:11.558Z,7.77
2022-11-05T16:40:38.176Z,4.80
2022-11-05T16:43:04.654Z,3.77
2022-11-05T16:45:31.249Z,10.50
2022-11-05T16:47:57.934Z,10.60
2022-11-05T16:50:24.484Z,6.60
2022-11-05T16:52:51.037Z,20.07
2022-11-05T16:55:17.566Z,7.80
2022-11-05T16:57:44.408Z,6.30
2022-11-05T17:00:10.892Z,5.73
2022-11-05T17:02:37.560Z,13.53
2022-11-05T17:05:04.211Z,6.73
2022-11-05T17:07:30.743Z,7.20
2022-11-05T17:09:57.825Z,5.67
2022-11-05T17:12:24.415Z,14.33
2022-11-05T17:14:50.902Z,13.37
2022-11-05T17:17:17.408Z,10.53
2022-11-05T17:19:43.944Z,18.40
2022-11-05T17:22:10.508Z,16.57
2022-11-05T17:24:37.417Z,12.90
2022-11-05T17:27:03.954Z,6.90
2022-11-05T17:29:30.459Z,9.23
2022-11-05T17:31:57.034Z,9.00
2022-11-05T17:34:23.620Z,9.37
2022-11-05T17:36:50.127Z,18.53
2022-11-05T17:39:16.633Z,10.80
2022-11-05T17:41:43.436Z,12.00
2022-11-05T17:44:09.913Z,15.33
2022-11-05T17:46:36.450Z,15.90
2022-11-05T17:49:02.975Z,18.53
2022-11-05T17:51:29.559Z,7.77
2022-11-05T17:53:56.045Z,12.43
2022-11-05T17:56:33.486Z,10.53
2022-11-05T17:59:01.004Z,7.57
2022-11-05T18:01:27.708Z,19.43
2022-11-05T18:03:54.285Z,11.07
2022-11-05T18:06:20.764Z,9.00
2022-11-05T18:08:47.268Z,16.50
2022-11-05T18:11:13.822Z,16.40
2022-11-05T18:13:40.372Z,10.23
2022-11-05T18:16:06.873Z,16.20
2022-11-05T18:18:33.371Z,10.70
2022-11-05T18:20:59.967Z,8.33
2022-11-05T18:23:26.533Z,11.53
2022-11-05T18:25:53.046Z,7.90
2022-11-05T18:28:19.544Z,9.60
2022-11-05T18:30:46.044Z,16.57
2022-11-05T18:33:12.880Z,11.17
2022-11-05T18:35:39.585Z,27.87
2022-11-05T18:38:06.078Z,11.47
2022-11-05T18:40:32.558Z,10.60
2022-11-05T18:42:59.087Z,11.07
2022-11-05T18:45:29.578Z,9.93
2022-11-05T18:47:56.544Z,9.33
2022-11-05T18:50:23.059Z,6.73
2022-11-05T18:52:49.552Z,9.40
2022-11-05T18:55:16.118Z,8.67
2022-11-05T18:57:42.631Z,7.60
2022-11-05T19:00:09.175Z,10.50
2022-11-05T19:02:35.763Z,11.93
2022-11-05T19:07:48.844Z,9.30
2022-11-05T19:10:15.368Z,8.50
2022-11-05T19:12:41.913Z,12.83
2022-11-05T19:15:08.404Z,13.20
2022-11-05T19:17:34.953Z,13.13
2022-11-05T19:20:01.456Z,10.00
2022-11-05T19:22:27.999Z,13.00
2022-11-05T19:24:54.492Z,11.77
2022-11-05T19:27:20.979Z,10.37
2022-11-05T19:29:47.477Z,16.83
2022-11-05T19:32:14.156Z,11.90
2022-11-05T19:34:40.768Z,13.93
2022-11-05T19:37:08.114Z,10.83
2022-11-05T19:39:34.638Z,14.07
2022-11-05T19:42:04.123Z,18.23
2022-11-05T19:44:31.377Z,14.83
2022-11-05T19:46:57.916Z,21.77
2022-11-05T19:49:24.383Z,14.57
2022-11-05T19:51:51.020Z,12.97
2022-11-05T19:54:17.583Z,15.47
2022-11-05T19:56:44.146Z,13.10
2022-11-05T19:59:10.656Z,12.90
2022-11-05T20:01:37.343Z,14.27
2022-11-05T20:04:04.723Z,15.30
2022-11-05T20:06:32.147Z,10.47
2022-11-05T20:11:45.266Z,16.97
2022-11-05T20:14:11.839Z,27.53
2022-11-05T20:16:39.069Z,14.27
2022-11-05T20:19:05.571Z,10.23
2022-11-05T20:21:32.052Z,13.60
2022-11-05T20:23:59.270Z,13.43
2022-11-05T20:26:25.771Z,13.80
2022-11-05T20:28:52.327Z,15.07
2022-11-05T20:31:18.847Z,14.13
2022-11-05T20:33:45.353Z,12.10
2022-11-05T20:36:11.884Z,14.43
2022-11-05T20:38:38.381Z,11.93
2022-11-05T20:41:04.892Z,19.20
2022-11-05T20:43:31.371Z,9.97
2022-11-05T20:45:57.873Z,21.03
2022-11-05T20:48:24.498Z,16.93
2022-11-05T20:50:50.998Z,15.23
2022-11-05T20:53:17.563Z,17.70
2022-11-05T20:55:44.170Z,19.43
2022-11-05T20:58:10.980Z,17.93
2022-11-05T21:00:37.637Z,15.13
2022-11-05T21:03:04.157Z,13.63
2022-11-05T21:05:35.346Z,18.40
2022-11-05T21:08:02.198Z,11.83
2022-11-05T21:10:28.678Z,14.97
2022-11-05T21:12:55.321Z,11.47
2022-11-05T21:15:23.139Z,15.70
2022-11-05T21:17:50.265Z,9.97
2022-11-05T21:20:16.785Z,13.53
2022-11-05T21:22:45.269Z,12.30
2022-11-05T21:25:11.779Z,16.60
2022-11-05T21:27:43.303Z,19.00
2022-11-05T21:30:10.130Z,10.47
2022-11-05T21:32:36.754Z,9.17
2022-11-05T21:35:03.236Z,12.03
2022-11-05T21:37:29.776Z,13.80
2022-11-05T21:39:56.396Z,13.17
2022-11-05T21:42:22.955Z,18.00
2022-11-05T21:44:49.669Z,15.50
2022-11-05T21:47:16.219Z,10.87
2022-11-05T21:49:42.713Z,10.83
2022-11-05T21:52:27.990Z,12.03
2022-11-05T21:55:13.028Z,14.33
2022-11-05T21:57:58.256Z,14.20
2022-11-05T22:00:24.767Z,19.07
2022-11-05T22:02:51.603Z,12.97
2022-11-05T22:05:18.386Z,10.53
2022-11-05T22:07:44.919Z,13.57
2022-11-05T22:10:15.844Z,15.13
2022-11-05T22:12:42.945Z,14.70
2022-11-05T22:15:09.430Z,11.00
2022-11-05T22:17:35.923Z,17.00
2022-11-05T22:20:02.997Z,22.67
2022-11-05T22:22:29.485Z,24.77
2022-11-05T22:24:56.009Z,16.50
2022-11-05T22:27:22.538Z,15.87
2022-11-05T22:29:49.048Z,14.13
2022-11-05T22:32:15.596Z,16.50
2022-11-05T22:34:42.124Z,14.20
2022-11-05T22:37:08.687Z,14.43
2022-11-05T22:39:35.190Z,14.03
2022-11-05T22:42:07.082Z,14.40
2022-11-05T22:44:35.070Z,21.40
2022-11-05T22:47:01.559Z,16.63
2022-11-05T22:49:28.109Z,12.17
2022-11-05T22:51:54.629Z,19.43
2022-11-05T22:54:21.102Z,16.30
2022-11-05T22:56:50.084Z,17.43
2022-11-05T22:59:16.571Z,18.67
2022-11-05T23:01:43.192Z,18.10
2022-11-05T23:04:09.778Z,24.33
2022-11-05T23:06:55.123Z,24.73
2022-11-05T23:09:40.222Z,17.93
2022-11-05T23:12:06.726Z,21.87
2022-11-05T23:14:33.194Z,15.23
2022-11-05T23:17:18.555Z,17.43
2022-11-05T23:20:04.058Z,20.50
2022-11-05T23:22:49.225Z,23.10
2022-11-05T23:25:17.122Z,23.80
2022-11-05T23:27:43.641Z,21.30
2022-11-05T23:30:10.127Z,20.13
2022-11-05T23:32:36.638Z,21.33
2022-11-05T23:35:03.158Z,21.10
2022-11-05T23:37:48.411Z,21.00
2022-11-05T23:40:15.417Z,24.37
2022-11-05T23:43:00.763Z,18.27
2022-11-05T23:45:46.182Z,14.03
2022-11-05T23:48:16.661Z,22.77
2022-11-05T23:50:43.397Z,17.10
2022-11-05T23:53:09.961Z,24.60
2022-11-05T23:55:36.453Z,22.47
2022-11-05T23:58:02.999Z,22.50
